sensor_id;sensor_type;location;lat;lon;timestamp;P1;durP1;ratioP1;P2;durP2;ratioP2
61739;SDS011;47645;45.288;12.038;2023-10-31T00:01:21;3.9;;;1.0;;
61739;SDS011;47645;45.288;12.038;2023-10-31T00:11:22;2.2;;;0.6;;
61739;SDS011;47645;45.288;12.038;2023-10-31T00:21:23;4.3;;;1.2;;
61739;SDS011;47645;45.288;12.038;2023-10-31T00:31:24;6.7;;;1.2;;
61739;SDS011;47645;45.288;12.038;2023-10-31T00:41:25;6.2;;;1.1;;
61739;SDS011;47645;45.288;12.038;2023-10-31T00:51:26;4.7;;;1.1;;
61739;SDS011;47645;45.288;12.038;2023-10-31T01:01:27;4.7;;;1.3;;
61739;SDS011;47645;45.288;12.038;2023-10-31T01:11:28;5.2;;;1.1;;
61739;SDS011;47645;45.288;12.038;2023-10-31T01:21:29;3.9;;;1.0;;
61739;SDS011;47645;45.288;12.038;2023-10-31T01:31:30;5.7;;;1.8;;
61739;SDS011;47645;45.288;12.038;2023-10-31T01:41:31;5.9;;;1.3;;
61739;SDS011;47645;45.288;12.038;2023-10-31T01:51:32;3.9;;;1.0;;
61739;SDS011;47645;45.288;12.038;2023-10-31T02:01:34;5.9;;;1.0;;
61739;SDS011;47645;45.288;12.038;2023-10-31T02:11:34;5.3;;;1.1;;
61739;SDS011;47645;45.288;12.038;2023-10-31T02:21:38;6.8;;;1.1;;
61739;SDS011;47645;45.288;12.038;2023-10-31T02:31:36;5.0;;;1.0;;
61739;SDS011;47645;45.288;12.038;2023-10-31T02:41:37;2.5;;;1.2;;
61739;SDS011;47645;45.288;12.038;2023-10-31T02:51:38;4.8;;;1.2;;
61739;SDS011;47645;45.288;12.038;2023-10-31T03:01:39;4.0;;;1.1;;
61739;SDS011;47645;45.288;12.038;2023-10-31T03:11:40;3.6;;;0.9;;
61739;SDS011;47645;45.288;12.038;2023-10-31T03:21:41;3.6;;;1.0;;
61739;SDS011;47645;45.288;12.038;2023-10-31T03:31:42;3.2;;;0.8;;
61739;SDS011;47645;45.288;12.038;2023-10-31T03:41:43;2.7;;;0.8;;
61739;SDS011;47645;45.288;12.038;2023-10-31T03:51:43;3.0;;;1.1;;
61739;SDS011;47645;45.288;12.038;2023-10-31T04:01:45;3.0;;;1.0;;
61739;SDS011;47645;45.288;12.038;2023-10-31T04:11:45;2.3;;;0.7;;
61739;SDS011;47645;45.288;12.038;2023-10-31T04:21:47;2.6;;;0.8;;
61739;SDS011;47645;45.288;12.038;2023-10-31T04:31:47;3.7;;;1.0;;
61739;SDS011;47645;45.288;12.038;2023-10-31T04:41:49;3.9;;;1.4;;
61739;SDS011;47645;45.288;12.038;2023-10-31T04:51:50;2.1;;;0.9;;
61739;SDS011;47645;45.288;12.038;2023-10-31T05:01:50;5.3;;;1.0;;
61739;SDS011;47645;45.288;12.038;2023-10-31T05:11:51;3.8;;;0.8;;
61739;SDS011;47645;45.288;12.038;2023-10-31T05:21:53;3.4;;;0.9;;
61739;SDS011;47645;45.288;12.038;2023-10-31T05:31:53;3.5;;;0.9;;
61739;SDS011;47645;45.288;12.038;2023-10-31T05:41:54;3.8;;;0.8;;
61739;SDS011;47645;45.288;12.038;2023-10-31T05:51:55;2.8;;;0.7;;
61739;SDS011;47645;45.288;12.038;2023-10-31T06:01:56;4.6;;;0.8;;
61739;SDS011;47645;45.288;12.038;2023-10-31T06:11:57;7.4;;;0.9;;
61739;SDS011;47645;45.288;12.038;2023-10-31T06:21:58;2.2;;;0.6;;
61739;SDS011;47645;45.288;12.038;2023-10-31T06:31:59;3.9;;;0.7;;
61739;SDS011;47645;45.288;12.038;2023-10-31T06:42:00;2.9;;;0.8;;
61739;SDS011;47645;45.288;12.038;2023-10-31T06:52:01;2.1;;;0.4;;
61739;SDS011;47645;45.288;12.038;2023-10-31T07:02:02;1.9;;;0.6;;
61739;SDS011;47645;45.288;12.038;2023-10-31T07:12:03;2.1;;;0.9;;
61739;SDS011;47645;45.288;12.038;2023-10-31T07:22:04;2.0;;;0.4;;
61739;SDS011;47645;45.288;12.038;2023-10-31T07:32:05;5.1;;;0.7;;
61739;SDS011;47645;45.288;12.038;2023-10-31T07:42:06;1.7;;;0.6;;
61739;SDS011;47645;45.288;12.038;2023-10-31T07:52:07;2.6;;;0.6;;
61739;SDS011;47645;45.288;12.038;2023-10-31T08:02:08;4.1;;;0.4;;
61739;SDS011;47645;45.288;12.038;2023-10-31T08:12:10;2.8;;;0.5;;
61739;SDS011;47645;45.288;12.038;2023-10-31T08:22:10;4.2;;;0.9;;
61739;SDS011;47645;45.288;12.038;2023-10-31T08:32:11;2.2;;;0.6;;
61739;SDS011;47645;45.288;12.038;2023-10-31T08:42:12;3.7;;;0.9;;
61739;SDS011;47645;45.288;12.038;2023-10-31T08:52:13;4.1;;;0.6;;
61739;SDS011;47645;45.288;12.038;2023-10-31T09:02:15;2.8;;;0.6;;
61739;SDS011;47645;45.288;12.038;2023-10-31T09:12:16;2.1;;;0.4;;
61739;SDS011;47645;45.288;12.038;2023-10-31T09:22:17;0.8;;;0.2;;
61739;SDS011;47645;45.288;12.038;2023-10-31T09:32:18;2.7;;;0.3;;
61739;SDS011;47645;45.288;12.038;2023-10-31T09:42:19;1.4;;;0.2;;
61739;SDS011;47645;45.288;12.038;2023-10-31T09:52:20;0.9;;;0.2;;
61739;SDS011;47645;45.288;12.038;2023-10-31T10:02:21;1.5;;;0.2;;
61739;SDS011;47645;45.288;12.038;2023-10-31T10:12:22;0.5;;;0.1;;
61739;SDS011;47645;45.288;12.038;2023-10-31T10:22:25;1.8;;;0.3;;
61739;SDS011;47645;45.288;12.038;2023-10-31T10:32:25;1.9;;;0.2;;
61739;SDS011;47645;45.288;12.038;2023-10-31T10:42:29;1.2;;;0.2;;
61739;SDS011;47645;45.288;12.038;2023-10-31T10:52:28;2.0;;;0.3;;
61739;SDS011;47645;45.288;12.038;2023-10-31T11:02:28;2.3;;;0.7;;
61739;SDS011;47645;45.288;12.038;2023-10-31T11:12:29;2.1;;;0.4;;
61739;SDS011;47645;45.288;12.038;2023-10-31T11:22:38;1.7;;;0.5;;
61739;SDS011;47645;45.288;12.038;2023-10-31T11:32:32;2.8;;;0.3;;
61739;SDS011;47645;45.288;12.038;2023-10-31T11:42:34;1.5;;;0.3;;
61739;SDS011;47645;45.288;12.038;2023-10-31T11:52:34;0.9;;;0.2;;
61739;SDS011;47645;45.288;12.038;2023-10-31T12:02:35;1.5;;;0.3;;
61739;SDS011;47645;45.288;12.038;2023-10-31T12:12:36;1.3;;;0.6;;
61739;SDS011;47645;45.288;12.038;2023-10-31T12:22:37;2.3;;;0.8;;
61739;SDS011;47645;45.288;12.038;2023-10-31T12:32:39;1.8;;;0.7;;
61739;SDS011;47645;45.288;12.038;2023-10-31T12:42:40;0.8;;;0.3;;
61739;SDS011;47645;45.288;12.038;2023-10-31T12:52:48;1.2;;;0.4;;
61739;SDS011;47645;45.288;12.038;2023-10-31T13:02:42;2.5;;;0.3;;
61739;SDS011;47645;45.288;12.038;2023-10-31T13:12:43;1.3;;;0.2;;
61739;SDS011;47645;45.288;12.038;2023-10-31T13:22:44;0.7;;;0.2;;
61739;SDS011;47645;45.288;12.038;2023-10-31T13:32:45;1.9;;;0.3;;
61739;SDS011;47645;45.288;12.038;2023-10-31T13:42:52;1.3;;;0.2;;
61739;SDS011;47645;45.288;12.038;2023-10-31T13:52:47;0.9;;;0.3;;
61739;SDS011;47645;45.288;12.038;2023-10-31T14:02:48;1.0;;;0.3;;
61739;SDS011;47645;45.288;12.038;2023-10-31T14:12:49;0.9;;;0.3;;
61739;SDS011;47645;45.288;12.038;2023-10-31T14:22:51;1.0;;;0.3;;
61739;SDS011;47645;45.288;12.038;2023-10-31T14:32:51;0.8;;;0.3;;
61739;SDS011;47645;45.288;12.038;2023-10-31T14:42:53;1.6;;;0.5;;
61739;SDS011;47645;45.288;12.038;2023-10-31T14:52:53;2.0;;;0.7;;
61739;SDS011;47645;45.288;12.038;2023-10-31T15:02:55;3.6;;;0.7;;
61739;SDS011;47645;45.288;12.038;2023-10-31T15:12:56;1.6;;;0.6;;
61739;SDS011;47645;45.288;12.038;2023-10-31T15:22:57;1.7;;;0.7;;
61739;SDS011;47645;45.288;12.038;2023-10-31T15:32:59;2.6;;;1.1;;
61739;SDS011;47645;45.288;12.038;2023-10-31T15:43:00;1.4;;;0.7;;
61739;SDS011;47645;45.288;12.038;2023-10-31T15:53:00;2.8;;;0.8;;
61739;SDS011;47645;45.288;12.038;2023-10-31T16:03:02;1.9;;;0.7;;
61739;SDS011;47645;45.288;12.038;2023-10-31T16:13:03;3.6;;;0.7;;
61739;SDS011;47645;45.288;12.038;2023-10-31T16:23:03;1.2;;;0.5;;
61739;SDS011;47645;45.288;12.038;2023-10-31T16:33:04;2.9;;;1.1;;
61739;SDS011;47645;45.288;12.038;2023-10-31T16:43:05;1.8;;;1.0;;
61739;SDS011;47645;45.288;12.038;2023-10-31T16:53:06;2.6;;;1.3;;
61739;SDS011;47645;45.288;12.038;2023-10-31T17:03:12;2.1;;;0.9;;
61739;SDS011;47645;45.288;12.038;2023-10-31T17:13:09;2.4;;;1.0;;
61739;SDS011;47645;45.288;12.038;2023-10-31T17:23:09;1.8;;;0.8;;
61739;SDS011;47645;45.288;12.038;2023-10-31T17:33:12;3.9;;;1.6;;
61739;SDS011;47645;45.288;12.038;2023-10-31T17:43:11;4.2;;;1.9;;
61739;SDS011;47645;45.288;12.038;2023-10-31T17:53:12;2.8;;;1.5;;
61739;SDS011;47645;45.288;12.038;2023-10-31T18:03:13;5.5;;;2.8;;
61739;SDS011;47645;45.288;12.038;2023-10-31T18:13:14;5.7;;;2.5;;
61739;SDS011;47645;45.288;12.038;2023-10-31T18:23:15;6.0;;;2.6;;
61739;SDS011;47645;45.288;12.038;2023-10-31T18:33:16;3.7;;;1.8;;
61739;SDS011;47645;45.288;12.038;2023-10-31T18:43:18;4.9;;;3.2;;
61739;SDS011;47645;45.288;12.038;2023-10-31T18:53:18;9.5;;;4.1;;
61739;SDS011;47645;45.288;12.038;2023-10-31T19:03:19;8.1;;;3.0;;
61739;SDS011;47645;45.288;12.038;2023-10-31T19:13:20;5.3;;;3.0;;
61739;SDS011;47645;45.288;12.038;2023-10-31T19:23:21;5.7;;;3.1;;
61739;SDS011;47645;45.288;12.038;2023-10-31T19:33:22;4.1;;;2.7;;
61739;SDS011;47645;45.288;12.038;2023-10-31T19:43:23;5.5;;;3.0;;
61739;SDS011;47645;45.288;12.038;2023-10-31T19:53:24;8.6;;;5.5;;
61739;SDS011;47645;45.288;12.038;2023-10-31T20:03:25;6.8;;;4.0;;
61739;SDS011;47645;45.288;12.038;2023-10-31T20:13:26;5.2;;;3.2;;
61739;SDS011;47645;45.288;12.038;2023-10-31T20:23:27;5.1;;;3.1;;
61739;SDS011;47645;45.288;12.038;2023-10-31T20:33:27;6.4;;;4.0;;
61739;SDS011;47645;45.288;12.038;2023-10-31T20:43:29;5.6;;;3.1;;
61739;SDS011;47645;45.288;12.038;2023-10-31T20:53:29;6.4;;;3.5;;
61739;SDS011;47645;45.288;12.038;2023-10-31T21:03:33;5.7;;;3.3;;
61739;SDS011;47645;45.288;12.038;2023-10-31T21:13:31;9.9;;;4.3;;
61739;SDS011;47645;45.288;12.038;2023-10-31T21:23:34;8.2;;;4.5;;
61739;SDS011;47645;45.288;12.038;2023-10-31T21:33:33;12.4;;;6.8;;
61739;SDS011;47645;45.288;12.038;2023-10-31T21:43:34;6.1;;;3.9;;
61739;SDS011;47645;45.288;12.038;2023-10-31T21:53:34;5.8;;;4.3;;
61739;SDS011;47645;45.288;12.038;2023-10-31T22:03:35;8.5;;;4.4;;
61739;SDS011;47645;45.288;12.038;2023-10-31T22:13:37;6.5;;;5.0;;
61739;SDS011;47645;45.288;12.038;2023-10-31T22:23:38;10.4;;;5.9;;
61739;SDS011;47645;45.288;12.038;2023-10-31T22:33:38;10.8;;;6.7;;
61739;SDS011;47645;45.288;12.038;2023-10-31T22:43:39;9.3;;;6.3;;
61739;SDS011;47645;45.288;12.038;2023-10-31T22:53:40;10.8;;;5.9;;
61739;SDS011;47645;45.288;12.038;2023-10-31T23:03:40;8.3;;;4.9;;
61739;SDS011;47645;45.288;12.038;2023-10-31T23:13:41;11.7;;;6.9;;
61739;SDS011;47645;45.288;12.038;2023-10-31T23:23:42;9.9;;;6.0;;
61739;SDS011;47645;45.288;12.038;2023-10-31T23:33:43;11.5;;;5.5;;
61739;SDS011;47645;45.288;12.038;2023-10-31T23:43:44;6.6;;;4.3;;
61739;SDS011;47645;45.288;12.038;2023-10-31T23:53:45;6.4;;;4.3;;
